Glacier Park International Airport

Airport
ICAO code: 
KGPI
Summary
ICAO Region: 
NAM
Territory: 
Location: 
Kalispell, Montana,
Elevation: 
2977 ft
Coordinates: 
Aerial View: 
48° 18' 40.575" N, 114° 15' 16.662" W
Airport CFIT: 
Altimeter Temperature Error Correction
Airport WX: 
Mountain Waves
Metar
Observation
KGPI 040655Z 00000KT 10SM SCT048 OVC100 M01/M03 A3010 RMK AO2 SLP218 T10111033 400501044
Station
Kalispell, Glacier Park International Airport
Date/Time
2021-12-04 06:55:00
Wind direction
Wind speed
00 kts
Lowest cloud amount
scattered clouds
Temperature
-1.1°C
Dew point
-3.3°C
Humidity
84%
Weather condition
n/a

Description

Glacier Park International Airport is a public airport located 10 km northeast of the central business district of Kalispell, in Flathead County, Montana. It also serves the towns of Evergreen, Columbia Falls and Whitefish as well as Glacier National Park.

Climatology

Continental climate (Köppen climate classification DFb) with cold winters and warm, dry summers.

Runways

Designator Length Width Surface Rops
7/25 928 46 ASP No/No
12/30 1068 23 ASP Yes/Yes
2/20 2745 46 ASP Yes/Yes
Airport map: 
Aerial View: 

SKYbrary Partners:

Safety knowledge contributed by: